Chicago, Illinois
Traffic Map
Current Weather Conditions
Chicago, Illinois
Broken Clouds
Broken Clouds
53°
Feels Like: 53°
Wind Chill: 53° Ceiling: 2800
Heat Index: 53° Visibility: 10mi
Dew Point: 50° Wind: 10mph
Humidity: 89% Direction: 360° (N)
Pressure: 29.55in Gusts: 0mph
Raw Report DataKMDW 250453Z 36009KT 10SM FEW009 BKN028 BKN090 12/10 A2955 RMK AO2 SLP006 T01170100
Traffic Incident Summary
Active as of:
Severity:
Category:
InformationThere was an issue retrieving the traffic information for this location. Please try a different location or try again shortly.
Advertisements
Track Severe Weather on mobile